San Salvatore I — ILTT — position and weather

sailwx.info

Track history (hours):
 
Tides and Currents Weather Stations Pressure Air Temp Water Temp Dewpoint Dewpoint Depression Visibility Wind Speed Wind Dir Waves Ship Positions

San Salvatore I

Last reported at 2018-Feb-24 03:25 UTC. Time now 2018-Feb-25 02:18 UTC.
Position N 39°12' E 009°07'.

Length 25 m.

Type: Fishing. MMSI: 247150060.

Date/timePositionNaut miles runAvg speedWind from/ knotsBaromVisibWave heightAir tempDewpointWater temp
2018-Feb-24 03:25N 39°12' E 009°07'0 0.0
2018-Feb-24 03:00N 39°12' E 009°07'0 0.0
2018-Feb-24 02:30N 39°12' E 009°07'0 0.0
2018-Feb-24 02:00N 39°12' E 009°07'0 0.0
2018-Feb-24 01:29N 39°12' E 009°07'0 0.0
2018-Feb-23 23:32N 39°12' E 009°07'0 0.0
2018-Feb-23 23:29N 39°12' E 009°07'0 0.0
2018-Feb-23 23:00N 39°12' E 009°07'2 3.3
2018-Feb-23 22:29N 39°11' E 009°06'510.3
2018-Feb-23 21:59N 39°06' E 009°05'510.4
2018-Feb-23 21:30N 39°01' E 009°03'610.3
2018-Feb-23 20:57N 38°56' E 008°59'  
2018-Feb-14 17:59N 39°05' E 009°17'0 0.6
2018-Feb-14 17:29N 39°05' E 009°17'1 2.5
2018-Feb-14 16:58N 39°04' E 009°16'4 0.4
2018-Feb-14 07:31N 39°00' E 009°14'0 2.9
2018-Feb-14 07:26N 39°00' E 009°14'5 1.7
2018-Feb-14 04:15N 39°02' E 009°08'2 9.1
2018-Feb-14 04:00N 39°05' E 009°07'5 9.3
2018-Feb-14 03:30N 39°09' E 009°06'  
Track history (hours):
 
Tides and Currents Weather Stations Pressure Air Temp Water Temp Dewpoint Dewpoint Depression Visibility Wind Speed Wind Dir Waves Ship Positions

San Salvatore I

Last reported at 2018-Feb-24 03:25 UTC. Time now 2018-Feb-25 02:18 UTC.
Position N 39°12' E 009°07'.

Length 25 m.

Type: Fishing. MMSI: 247150060.

Date/timePositionNaut miles runAvg speedWind from/ knotsBaromVisibWave heightAir tempDewpointWater temp
2018-Feb-24 03:25N 39°12' E 009°07'0 0.0
2018-Feb-24 03:00N 39°12' E 009°07'0 0.0
2018-Feb-24 02:30N 39°12' E 009°07'0 0.0
2018-Feb-24 02:00N 39°12' E 009°07'0 0.0
2018-Feb-24 01:29N 39°12' E 009°07'0 0.0
2018-Feb-23 23:32N 39°12' E 009°07'0 0.0
2018-Feb-23 23:29N 39°12' E 009°07'0 0.0
2018-Feb-23 23:00N 39°12' E 009°07'2 3.3
2018-Feb-23 22:29N 39°11' E 009°06'510.3
2018-Feb-23 21:59N 39°06' E 009°05'510.4
2018-Feb-23 21:30N 39°01' E 009°03'610.3
2018-Feb-23 20:57N 38°56' E 008°59'  
2018-Feb-14 17:59N 39°05' E 009°17'0 0.6
2018-Feb-14 17:29N 39°05' E 009°17'1 2.5
2018-Feb-14 16:58N 39°04' E 009°16'4 0.4
2018-Feb-14 07:31N 39°00' E 009°14'0 2.9
2018-Feb-14 07:26N 39°00' E 009°14'5 1.7
2018-Feb-14 04:15N 39°02' E 009°08'2 9.1
2018-Feb-14 04:00N 39°05' E 009°07'5 9.3
2018-Feb-14 03:30N 39°09' E 009°06'  

Dump ship's entire track history